Lake Holcombe, Wisconsin
Current Conditions -  °F | °C
As of 3:55 AM on Tuesday 21 Oct 2014 (Local Time) from KY23 Reporting Station
Overcast Overcast  
Wind Chill: 42°   Ceiling: 2700
Heat Index: 46°   Visibility: 10mi
Dew Point: 39°   Wind: 6mph
Humidity: 77%   Direction: 30°NNE
Pressure: 30.14"   Gusts: NA
Location:  45.2521°N, 91.2394°W
Report Text: KY23 210855Z AUTO 03005KT 10SM OVC027 08/04 A3014 RMK AO2 T00750037
Loading
Personal Weather Stations






























Interactive Weather Map
Tropical Storm Tracking
New forecast layout! Learn more

10-Day Weather Forecast

Advertisements
Track Severe Weather on mobile